Aviation Digital Data Service (ADDS)

Output produced by TAFs form (0141 UTC 26 February 2018)
found at http://www.aviationweather.gov/adds/tafs/
 
KHKY 260053Z 25007KT 10SM CLR 17/13 A3008 RMK AO2 SLP168 T01670133 $
KHKY 252335Z 2600/2624 20007KT P6SM OVC100 
     TEMPO 2607/2609 4SM -SHRA BR SCT008 OVC025 
     FM260900 VRB03KT 4SM -SHRA BR OVC060 
     FM261300 VRB02KT 3SM -SHRA BR OVC020 
     FM261500 VRB03KT 3SM BR OVC010 
     PROB30 2615/2617 2SM -RA BR OVC008 
     FM261700 VRB03KT P6SM OVC008 
     PROB30 2617/2621 2SM -SHRA OVC004 
     FM262300 04005KT P6SM BKN040